createdAt,value
2018-06-07T00:00:30.316Z,14.00
2018-06-07T00:01:04.239Z,14.00
2018-06-07T00:01:37.790Z,14.00
2018-06-07T00:02:11.387Z,14.00
2018-06-07T00:02:45.274Z,14.00
2018-06-07T00:03:18.852Z,14.00
2018-06-07T00:03:52.454Z,14.00
2018-06-07T00:04:26.012Z,14.00
2018-06-07T00:04:59.580Z,14.00
2018-06-07T00:05:33.168Z,14.00
2018-06-07T00:06:06.796Z,14.00
2018-06-07T00:07:13.414Z,14.00
2018-06-07T00:07:46.968Z,14.00
2018-06-07T00:08:20.512Z,13.90
2018-06-07T00:08:54.095Z,14.00
2018-06-07T00:09:27.661Z,14.00
2018-06-07T00:10:01.200Z,13.90
2018-06-07T00:10:34.778Z,14.00
2018-06-07T00:11:08.682Z,13.90
2018-06-07T00:11:42.552Z,14.00
2018-06-07T00:12:16.111Z,13.90
2018-06-07T00:12:49.675Z,13.90
2018-06-07T00:13:23.284Z,13.90
2018-06-07T00:13:56.901Z,13.90
2018-06-07T00:14:30.690Z,13.90
2018-06-07T00:15:04.627Z,13.90
2018-06-07T00:15:38.256Z,13.90
2018-06-07T00:16:11.804Z,13.90
2018-06-07T00:16:45.372Z,13.90
2018-06-07T00:17:19.222Z,13.80
2018-06-07T00:17:52.816Z,13.90
2018-06-07T00:18:26.566Z,13.90
2018-06-07T00:19:00.142Z,13.80
2018-06-07T00:19:33.674Z,13.90
2018-06-07T00:20:07.556Z,13.80
2018-06-07T00:20:41.117Z,13.80
2018-06-07T00:21:14.786Z,13.80
2018-06-07T00:21:48.637Z,13.80
2018-06-07T00:22:22.254Z,13.80
2018-06-07T00:22:55.799Z,13.80
2018-06-07T00:23:29.330Z,13.80
2018-06-07T00:24:02.900Z,13.80
2018-06-07T00:24:36.840Z,13.80
2018-06-07T00:25:10.401Z,13.80
2018-06-07T00:25:43.944Z,13.80
2018-06-07T00:26:51.099Z,13.80
2018-06-07T00:27:24.652Z,13.80
2018-06-07T00:27:58.204Z,13.80
2018-06-07T00:28:31.754Z,13.70
2018-06-07T00:29:05.334Z,13.70
2018-06-07T00:29:38.856Z,13.70
2018-06-07T00:30:12.408Z,13.70
2018-06-07T00:30:45.942Z,13.70
2018-06-07T00:31:19.467Z,13.70
2018-06-07T00:31:53.010Z,13.70
2018-06-07T00:32:26.938Z,13.70
2018-06-07T00:33:00.494Z,13.70
2018-06-07T00:33:34.020Z,13.70
2018-06-07T00:34:40.894Z,13.70
2018-06-07T00:35:14.438Z,13.70
2018-06-07T00:35:48.804Z,13.70
2018-06-07T00:36:22.678Z,13.70
2018-06-07T00:36:56.218Z,13.70
2018-06-07T00:37:30.092Z,13.70
2018-06-07T00:38:03.632Z,13.70
2018-06-07T00:38:37.218Z,13.70
2018-06-07T00:39:10.822Z,13.70
2018-06-07T00:39:44.570Z,13.70
2018-06-07T00:40:18.158Z,13.70
2018-06-07T00:40:51.698Z,13.70
2018-06-07T00:41:25.247Z,13.70
2018-06-07T00:41:58.797Z,13.60
2018-06-07T00:42:32.350Z,13.60
2018-06-07T00:43:07.468Z,13.60
2018-06-07T00:43:41.024Z,13.60
2018-06-07T00:44:14.630Z,13.60
2018-06-07T00:44:48.189Z,13.70
2018-06-07T00:45:21.743Z,13.60
2018-06-07T00:45:55.280Z,13.60
2018-06-07T00:46:28.787Z,13.60
2018-06-07T00:47:02.325Z,13.60
2018-06-07T00:47:36.207Z,13.60
2018-06-07T00:48:10.073Z,13.60
2018-06-07T00:48:44.978Z,13.60
2018-06-07T00:49:18.589Z,13.60
2018-06-07T00:49:52.136Z,13.60
2018-06-07T00:50:25.907Z,13.60
2018-06-07T00:50:59.432Z,13.60
2018-06-07T00:51:33.048Z,13.50
2018-06-07T00:52:06.568Z,13.60
2018-06-07T00:52:40.105Z,13.50
2018-06-07T00:53:13.645Z,13.60
2018-06-07T00:53:47.168Z,13.60
2018-06-07T00:54:20.761Z,13.50
2018-06-07T00:54:54.330Z,13.50
2018-06-07T00:55:28.212Z,13.50
2018-06-07T00:56:02.109Z,13.50
2018-06-07T00:57:10.888Z,13.50
2018-06-07T00:57:44.432Z,13.50
2018-06-07T00:58:17.992Z,13.50
2018-06-07T00:58:51.529Z,13.50
2018-06-07T00:59:25.096Z,13.40
2018-06-07T00:59:58.617Z,13.50
2018-06-07T01:00:32.903Z,13.40
2018-06-07T01:01:06.757Z,13.50
2018-06-07T01:01:40.283Z,13.40
2018-06-07T01:02:13.821Z,13.50
2018-06-07T01:02:47.408Z,13.40
2018-06-07T01:03:20.949Z,13.40
2018-06-07T01:03:54.494Z,13.40
2018-06-07T01:04:28.413Z,13.40
2018-06-07T01:05:01.951Z,13.40
2018-06-07T01:05:35.552Z,13.40
2018-06-07T01:06:09.417Z,13.40
2018-06-07T01:06:42.956Z,13.40
2018-06-07T01:07:16.513Z,13.30
2018-06-07T01:07:50.102Z,13.40
2018-06-07T01:08:23.986Z,13.40
2018-06-07T01:08:57.533Z,13.30
2018-06-07T01:09:31.099Z,13.30
2018-06-07T01:10:04.992Z,13.30
2018-06-07T01:10:39.018Z,13.30
2018-06-07T01:11:12.559Z,13.30
2018-06-07T01:11:46.146Z,13.30
2018-06-07T01:12:19.697Z,13.30
2018-06-07T01:12:53.255Z,13.30
2018-06-07T01:13:26.780Z,13.30
2018-06-07T01:14:00.300Z,13.30
2018-06-07T01:14:33.897Z,13.30
2018-06-07T01:15:07.481Z,13.30
2018-06-07T01:15:41.033Z,13.30
2018-06-07T01:16:14.555Z,13.30
2018-06-07T01:16:48.411Z,13.30
2018-06-07T01:17:21.956Z,13.30
2018-06-07T01:17:55.480Z,13.30
2018-06-07T01:18:29.005Z,13.30
2018-06-07T01:19:02.543Z,13.30
2018-06-07T01:19:36.473Z,13.30
2018-06-07T01:20:10.022Z,13.30
2018-06-07T01:20:43.539Z,13.20
2018-06-07T01:21:17.065Z,13.20
2018-06-07T01:21:50.613Z,13.20
2018-06-07T01:22:24.139Z,13.20
2018-06-07T01:22:57.685Z,13.20
2018-06-07T01:23:31.210Z,13.20
2018-06-07T01:24:04.757Z,13.20
2018-06-07T01:24:38.663Z,13.20
2018-06-07T01:25:12.201Z,13.20
2018-06-07T01:25:45.746Z,13.20
2018-06-07T01:26:19.691Z,13.20
2018-06-07T01:26:53.641Z,13.20
2018-06-07T01:27:32.735Z,13.20
2018-06-07T01:28:06.397Z,13.20
2018-06-07T01:28:40.315Z,13.20
2018-06-07T01:29:26.771Z,13.10
2018-06-07T01:30:15.987Z,13.10
2018-06-07T01:30:54.789Z,13.20
2018-06-07T01:32:41.403Z,13.10
2018-06-07T01:33:31.887Z,13.10
2018-06-07T01:34:05.410Z,13.10
2018-06-07T01:34:39.265Z,13.10
2018-06-07T01:35:12.807Z,13.10
2018-06-07T01:35:46.405Z,13.10
2018-06-07T01:36:20.000Z,13.10
2018-06-07T01:36:53.551Z,13.10
2018-06-07T01:37:27.101Z,13.10
2018-06-07T01:38:12.045Z,13.10
2018-06-07T01:39:05.307Z,13.00
2018-06-07T01:39:38.859Z,13.10
2018-06-07T01:40:12.425Z,13.00
2018-06-07T01:40:45.963Z,13.10
2018-06-07T01:41:19.523Z,13.10
2018-06-07T01:41:53.067Z,13.10
2018-06-07T01:42:26.634Z,13.10
2018-06-07T01:43:00.167Z,13.10
2018-06-07T01:43:33.722Z,13.10
2018-06-07T01:44:07.271Z,13.00
2018-06-07T01:45:14.356Z,13.00
2018-06-07T01:45:47.921Z,13.00
2018-06-07T01:46:21.525Z,13.00
2018-06-07T01:46:55.418Z,13.00
2018-06-07T01:47:28.990Z,13.00
2018-06-07T01:48:02.576Z,13.00
2018-06-07T01:48:36.131Z,13.00
2018-06-07T01:49:10.004Z,13.00
2018-06-07T01:49:43.563Z,13.00
2018-06-07T01:50:17.076Z,13.00
2018-06-07T01:50:50.965Z,13.00
2018-06-07T01:51:24.529Z,13.00
2018-06-07T01:51:58.081Z,13.00
2018-06-07T01:52:31.658Z,13.00
2018-06-07T01:53:06.056Z,13.00
2018-06-07T01:53:39.599Z,13.00
2018-06-07T01:54:13.117Z,13.00
2018-06-07T01:54:46.698Z,13.00
2018-06-07T01:55:20.219Z,13.00
2018-06-07T01:55:53.882Z,13.00
2018-06-07T01:56:27.944Z,13.00
2018-06-07T01:57:01.455Z,12.90
2018-06-07T01:57:34.978Z,13.00
2018-06-07T01:58:08.527Z,13.00
2018-06-07T01:58:42.075Z,13.00
2018-06-07T01:59:15.617Z,13.00
2018-06-07T01:59:49.157Z,13.00
2018-06-07T02:00:22.675Z,12.90
2018-06-07T02:00:56.208Z,13.00
2018-06-07T02:01:29.761Z,13.00
2018-06-07T02:02:03.611Z,12.90
2018-06-07T02:02:37.131Z,13.00
2018-06-07T02:03:10.665Z,12.90
2018-06-07T02:03:44.213Z,12.90
2018-06-07T02:04:17.755Z,12.90
2018-06-07T02:04:51.274Z,12.90
2018-06-07T02:05:24.826Z,12.90
2018-06-07T02:05:58.379Z,12.90
2018-06-07T02:06:31.961Z,12.90
2018-06-07T02:07:05.875Z,12.90
2018-06-07T02:07:39.465Z,12.90
2018-06-07T02:08:13.053Z,12.90
2018-06-07T02:08:46.973Z,12.90
2018-06-07T02:09:20.495Z,12.90
2018-06-07T02:09:54.041Z,12.90
2018-06-07T02:10:27.605Z,12.90
2018-06-07T02:11:01.157Z,12.80
2018-06-07T02:11:34.767Z,12.90
2018-06-07T02:12:08.310Z,12.80
2018-06-07T02:12:41.879Z,12.80
2018-06-07T02:13:15.428Z,12.90
2018-06-07T02:13:49.355Z,12.80
2018-06-07T02:14:22.886Z,12.90
2018-06-07T02:14:56.477Z,12.80
2018-06-07T02:15:30.225Z,12.80
2018-06-07T02:16:03.793Z,12.80
2018-06-07T02:16:37.670Z,12.80
2018-06-07T02:17:11.223Z,12.80
2018-06-07T02:17:44.809Z,12.80
2018-06-07T02:18:18.317Z,12.80
2018-06-07T02:18:51.823Z,12.80
2018-06-07T02:19:25.339Z,12.80
2018-06-07T02:19:58.861Z,12.80
2018-06-07T02:20:32.411Z,12.80
2018-06-07T02:21:06.061Z,12.80
2018-06-07T02:21:39.625Z,12.80
2018-06-07T02:22:13.167Z,12.80
2018-06-07T02:22:46.716Z,12.80
2018-06-07T02:23:20.273Z,12.80
2018-06-07T02:23:53.815Z,12.80
2018-06-07T02:24:27.348Z,12.80
2018-06-07T02:25:00.897Z,12.80
2018-06-07T02:25:34.465Z,12.80
2018-06-07T02:26:08.037Z,12.80
2018-06-07T02:26:41.645Z,12.80
2018-06-07T02:27:15.535Z,12.80
2018-06-07T02:27:49.104Z,12.70
2018-06-07T02:28:22.675Z,12.70
2018-06-07T02:28:56.218Z,12.70
2018-06-07T02:29:29.773Z,12.80
2018-06-07T02:30:03.324Z,12.80
2018-06-07T02:30:36.879Z,12.80
2018-06-07T02:31:10.399Z,12.70
2018-06-07T02:31:44.012Z,12.80
2018-06-07T02:32:17.567Z,12.80
2018-06-07T02:32:51.111Z,12.80
2018-06-07T02:33:24.803Z,12.70
2018-06-07T02:33:58.336Z,12.70
2018-06-07T02:34:31.907Z,12.80
2018-06-07T02:35:05.465Z,12.70
2018-06-07T02:35:39.045Z,12.70
2018-06-07T02:36:12.583Z,12.70
2018-06-07T02:36:46.157Z,12.80
2018-06-07T02:37:20.039Z,12.80
2018-06-07T02:37:53.621Z,12.70
2018-06-07T02:38:27.299Z,12.70
2018-06-07T02:39:00.843Z,12.80
2018-06-07T02:39:34.378Z,12.70
2018-06-07T02:40:41.238Z,12.80
2018-06-07T02:41:14.771Z,12.80
2018-06-07T02:41:48.354Z,12.80
2018-06-07T02:42:22.217Z,12.70
2018-06-07T02:42:55.739Z,12.80
2018-06-07T02:43:29.271Z,12.80
2018-06-07T02:44:02.817Z,12.80
2018-06-07T02:44:36.367Z,12.80
2018-06-07T02:45:09.911Z,12.70
2018-06-07T02:45:43.435Z,12.70
2018-06-07T02:46:16.953Z,12.70
2018-06-07T02:46:50.544Z,12.70
2018-06-07T02:47:24.101Z,12.70
2018-06-07T02:47:57.619Z,12.80
2018-06-07T02:48:34.303Z,12.70
2018-06-07T02:49:08.195Z,12.70
2018-06-07T02:49:41.805Z,12.70
2018-06-07T02:50:15.361Z,12.70
2018-06-07T02:50:48.881Z,12.70
2018-06-07T02:51:55.767Z,12.70
2018-06-07T02:52:29.285Z,12.70
2018-06-07T02:53:03.215Z,12.70
2018-06-07T02:53:36.779Z,12.70
2018-06-07T02:54:10.343Z,12.70
2018-06-07T02:54:43.909Z,12.70
2018-06-07T02:55:17.453Z,12.70
2018-06-07T02:55:51.035Z,12.70
2018-06-07T02:56:24.567Z,12.70
2018-06-07T02:56:58.153Z,12.80
2018-06-07T02:57:31.703Z,12.70
2018-06-07T02:58:05.599Z,12.70
2018-06-07T02:58:39.172Z,12.70
2018-06-07T02:59:12.769Z,12.70
2018-06-07T02:59:46.317Z,12.70
2018-06-07T03:00:19.845Z,12.70
2018-06-07T03:00:53.453Z,12.70
2018-06-07T03:01:27.063Z,12.70
2018-06-07T03:02:00.793Z,12.70
2018-06-07T03:02:34.381Z,12.70
2018-06-07T03:03:07.926Z,12.70
2018-06-07T03:03:41.699Z,12.80
2018-06-07T03:04:15.269Z,12.80
2018-06-07T03:04:48.849Z,12.80
2018-06-07T03:05:22.760Z,12.80
2018-06-07T03:05:56.354Z,12.80
2018-06-07T03:06:29.928Z,12.80
2018-06-07T03:07:03.880Z,12.80
2018-06-07T03:07:37.407Z,12.80
2018-06-07T03:08:10.976Z,12.80
2018-06-07T03:08:44.551Z,12.80
2018-06-07T03:09:18.441Z,12.80
2018-06-07T03:09:51.997Z,12.80
2018-06-07T03:10:25.549Z,12.80
2018-06-07T03:10:59.107Z,12.80
2018-06-07T03:11:32.668Z,12.80
2018-06-07T03:12:06.332Z,12.80
2018-06-07T03:12:40.191Z,12.80
2018-06-07T03:13:13.727Z,12.80
2018-06-07T03:13:47.265Z,12.80
2018-06-07T03:14:20.803Z,12.80
2018-06-07T03:14:54.321Z,12.80
2018-06-07T03:15:27.881Z,12.80
2018-06-07T03:16:01.447Z,12.80
2018-06-07T03:16:34.995Z,12.80
2018-06-07T03:17:08.580Z,12.90
2018-06-07T03:17:42.127Z,12.90
2018-06-07T03:18:15.667Z,12.90
2018-06-07T03:18:49.197Z,12.90
2018-06-07T03:19:22.748Z,12.90
2018-06-07T03:19:56.305Z,12.90
2018-06-07T03:20:29.857Z,12.90
2018-06-07T03:21:03.529Z,13.00
2018-06-07T03:21:37.079Z,13.00
2018-06-07T03:22:10.855Z,13.10
2018-06-07T03:22:44.413Z,13.10
2018-06-07T03:23:17.943Z,13.20
2018-06-07T03:23:51.487Z,13.40
2018-06-07T03:24:25.027Z,13.50
2018-06-07T03:24:58.591Z,13.70
2018-06-07T03:25:32.463Z,13.80
2018-06-07T03:26:05.995Z,14.00
2018-06-07T03:26:39.527Z,14.20
2018-06-07T03:27:13.092Z,14.40
2018-06-07T03:27:46.622Z,14.60
2018-06-07T03:28:20.165Z,14.70
2018-06-07T03:28:53.775Z,14.90
2018-06-07T03:29:27.303Z,15.10
2018-06-07T03:30:00.599Z,15.20
2018-06-07T03:30:33.900Z,15.40
2018-06-07T03:31:07.460Z,15.50
2018-06-07T03:31:40.734Z,15.70
2018-06-07T03:32:14.065Z,15.80
2018-06-07T03:32:47.329Z,15.90
2018-06-07T03:33:20.594Z,16.00
2018-06-07T03:33:53.850Z,16.20
2018-06-07T03:34:27.159Z,16.30
2018-06-07T03:35:00.433Z,16.40
2018-06-07T03:35:33.709Z,16.50
2018-06-07T03:36:06.976Z,16.60
2018-06-07T03:36:40.577Z,16.70
2018-06-07T03:37:13.882Z,16.80
2018-06-07T03:37:47.143Z,16.90
2018-06-07T03:38:20.456Z,17.00
2018-06-07T03:38:53.760Z,17.10
2018-06-07T03:39:27.016Z,17.20
2018-06-07T03:40:00.285Z,17.30
2018-06-07T03:40:33.561Z,17.40
2018-06-07T03:41:06.814Z,17.60
2018-06-07T03:41:40.090Z,17.60
2018-06-07T03:42:13.414Z,17.70
2018-06-07T03:42:46.744Z,17.80
2018-06-07T03:43:20.010Z,17.90
2018-06-07T03:43:53.635Z,18.00
2018-06-07T03:44:26.939Z,18.00
2018-06-07T03:45:00.188Z,18.10
2018-06-07T03:45:33.777Z,18.10
2018-06-07T03:46:07.053Z,18.20
2018-06-07T03:46:40.331Z,18.30
2018-06-07T03:47:13.653Z,18.40
2018-06-07T03:47:46.972Z,18.40
2018-06-07T03:48:20.241Z,18.50
2018-06-07T03:48:53.532Z,18.60
2018-06-07T03:49:26.809Z,18.60
2018-06-07T03:50:00.090Z,18.70
2018-06-07T03:50:33.404Z,18.70
2018-06-07T03:51:07.222Z,18.80
2018-06-07T03:51:40.482Z,18.90
2018-06-07T03:52:14.102Z,18.90
2018-06-07T03:52:47.481Z,18.90
2018-06-07T03:53:21.237Z,19.00
2018-06-07T03:54:31.900Z,19.20
2018-06-07T03:55:05.144Z,19.20
2018-06-07T03:55:38.424Z,19.20
2018-06-07T03:56:11.704Z,19.20
2018-06-07T03:56:44.998Z,19.20
2018-06-07T03:57:51.378Z,19.30
2018-06-07T03:58:24.654Z,19.40
2018-06-07T03:58:57.904Z,19.40
2018-06-07T03:59:31.695Z,19.50
2018-06-07T04:00:04.998Z,19.50
2018-06-07T04:00:38.360Z,19.50
2018-06-07T04:01:11.982Z,19.60
2018-06-07T04:01:45.262Z,19.60
2018-06-07T04:02:18.560Z,19.70
2018-06-07T04:02:52.365Z,19.70
2018-06-07T04:03:25.655Z,19.80
2018-06-07T04:03:58.996Z,19.80
2018-06-07T04:04:32.320Z,19.80
2018-06-07T04:05:05.652Z,19.90
2018-06-07T04:05:38.972Z,20.00
2018-06-07T04:06:12.269Z,20.00
2018-06-07T04:06:45.758Z,20.10
2018-06-07T04:07:19.059Z,20.10
2018-06-07T04:07:52.421Z,20.20
2018-06-07T04:08:25.726Z,20.20
2018-06-07T04:08:59.336Z,20.30
2018-06-07T04:09:32.768Z,20.30
2018-06-07T04:10:06.229Z,20.40
2018-06-07T04:10:39.658Z,20.40
2018-06-07T04:11:12.926Z,20.50
2018-06-07T04:11:46.498Z,20.50
2018-06-07T04:12:19.824Z,20.50
2018-06-07T04:12:53.118Z,20.50
2018-06-07T04:13:26.421Z,20.50
2018-06-07T04:13:59.757Z,20.50
2018-06-07T04:14:33.042Z,20.50
2018-06-07T04:15:06.363Z,20.50
2018-06-07T04:15:39.644Z,20.50
2018-06-07T04:16:12.960Z,20.60
2018-06-07T04:16:46.748Z,20.60
2018-06-07T04:17:20.065Z,20.60
2018-06-07T04:17:53.377Z,20.70
2018-06-07T04:18:26.708Z,20.70
2018-06-07T04:18:59.987Z,20.70
2018-06-07T04:19:33.270Z,20.70
2018-06-07T04:20:07.550Z,20.70
2018-06-07T04:20:40.852Z,20.80
2018-06-07T04:21:14.253Z,20.80
2018-06-07T04:21:47.638Z,20.80
2018-06-07T04:22:20.931Z,20.80
2018-06-07T04:22:54.382Z,20.90
2018-06-07T04:23:27.625Z,20.90
2018-06-07T04:24:00.910Z,20.90
2018-06-07T04:24:34.437Z,21.00
2018-06-07T04:25:07.760Z,21.00
2018-06-07T04:25:41.395Z,21.10
2018-06-07T04:26:14.705Z,21.10
2018-06-07T04:26:48.008Z,21.20
2018-06-07T04:27:21.294Z,21.30
2018-06-07T04:27:54.619Z,21.30
2018-06-07T04:28:27.920Z,21.40
2018-06-07T04:29:01.340Z,21.40
2018-06-07T04:29:34.664Z,21.50
2018-06-07T04:30:07.981Z,21.50
2018-06-07T04:30:41.248Z,21.60
2018-06-07T04:31:14.689Z,21.70
2018-06-07T04:31:47.963Z,21.70
2018-06-07T04:32:21.372Z,21.70
2018-06-07T04:32:54.704Z,21.70
2018-06-07T04:33:27.988Z,21.80
2018-06-07T04:34:01.338Z,21.80
2018-06-07T04:34:34.634Z,21.90
2018-06-07T04:35:08.008Z,22.00
2018-06-07T04:35:41.302Z,22.10
2018-06-07T04:36:14.654Z,22.10
2018-06-07T04:37:21.164Z,22.20
2018-06-07T04:37:54.607Z,22.20
2018-06-07T04:38:28.064Z,22.30
2018-06-07T04:39:01.354Z,22.30
2018-06-07T04:39:34.751Z,22.30
2018-06-07T04:40:08.054Z,22.40
2018-06-07T04:40:41.389Z,22.40
2018-06-07T04:41:14.649Z,22.40
2018-06-07T04:41:47.976Z,22.40
2018-06-07T04:42:21.278Z,22.50
2018-06-07T04:42:54.604Z,22.50
2018-06-07T04:43:27.896Z,22.50
2018-06-07T04:44:01.422Z,22.50
2018-06-07T04:44:35.014Z,22.60
2018-06-07T04:45:08.746Z,22.60
2018-06-07T04:45:42.170Z,22.60
2018-06-07T04:46:15.470Z,22.60
2018-06-07T04:46:48.750Z,22.60
2018-06-07T04:47:22.040Z,22.60
2018-06-07T04:47:55.390Z,22.60
2018-06-07T04:48:28.666Z,22.60
2018-06-07T04:49:01.940Z,22.60
2018-06-07T04:50:08.258Z,22.60
2018-06-07T04:50:41.544Z,22.60
2018-06-07T04:51:14.852Z,22.60
2018-06-07T04:51:48.202Z,22.60
2018-06-07T04:52:21.442Z,22.70
2018-06-07T04:52:54.700Z,22.70
2018-06-07T04:53:28.026Z,22.70
2018-06-07T04:54:01.280Z,22.70
2018-06-07T04:54:34.552Z,22.80
2018-06-07T04:55:07.818Z,22.80
2018-06-07T04:55:41.092Z,22.80
2018-06-07T04:56:14.370Z,22.90
2018-06-07T04:56:47.660Z,22.90
2018-06-07T04:57:20.934Z,22.90
2018-06-07T04:57:54.212Z,22.90
2018-06-07T04:58:27.513Z,22.90
2018-06-07T04:59:00.846Z,23.00
2018-06-07T04:59:34.116Z,23.00
2018-06-07T05:00:08.104Z,23.10
2018-06-07T05:00:41.391Z,23.10
2018-06-07T05:01:14.662Z,23.10
2018-06-07T05:01:47.920Z,23.10
2018-06-07T05:02:21.504Z,23.20
2018-06-07T05:02:54.762Z,23.20
2018-06-07T05:04:01.477Z,23.20
2018-06-07T05:04:34.763Z,23.20
2018-06-07T05:05:08.043Z,23.30
2018-06-07T05:05:41.398Z,23.30
2018-06-07T05:06:14.682Z,23.30
2018-06-07T05:06:47.989Z,23.30
2018-06-07T05:07:21.401Z,23.40
2018-06-07T05:07:54.683Z,23.50
2018-06-07T05:08:27.962Z,23.50
2018-06-07T05:09:01.320Z,23.50
2018-06-07T05:09:34.621Z,23.60
2018-06-07T05:10:07.968Z,23.60
2018-06-07T05:11:44.446Z,23.60
2018-06-07T05:12:17.789Z,23.70
2018-06-07T05:12:51.198Z,23.90
2018-06-07T05:13:24.457Z,23.90
2018-06-07T05:13:57.768Z,24.00
2018-06-07T05:14:31.048Z,24.00
2018-06-07T05:15:04.404Z,24.10
2018-06-07T05:15:37.677Z,24.20
2018-06-07T05:16:11.275Z,24.20
2018-06-07T05:16:44.555Z,24.20
2018-06-07T05:17:17.851Z,24.30
2018-06-07T05:17:51.405Z,24.30
2018-06-07T05:18:24.737Z,24.30
2018-06-07T05:18:58.001Z,24.40
2018-06-07T05:19:31.309Z,24.30
2018-06-07T05:20:05.025Z,24.30
2018-06-07T05:20:38.309Z,24.40
2018-06-07T05:21:44.957Z,24.40
2018-06-07T05:22:18.264Z,24.50
2018-06-07T05:23:24.650Z,24.60
2018-06-07T05:23:57.892Z,24.60
2018-06-07T05:24:31.176Z,24.60
2018-06-07T05:25:05.175Z,24.60
2018-06-07T05:25:38.489Z,24.60
2018-06-07T05:26:12.161Z,24.60
2018-06-07T05:26:45.418Z,24.60
2018-06-07T05:27:18.741Z,24.60
2018-06-07T05:27:52.020Z,24.60
2018-06-07T05:28:25.279Z,24.70
2018-06-07T05:28:58.544Z,24.70
2018-06-07T05:29:31.812Z,24.70
2018-06-07T05:30:05.417Z,24.80
2018-06-07T05:30:38.708Z,24.80
2018-06-07T05:31:12.023Z,24.80
2018-06-07T05:31:45.303Z,24.80
2018-06-07T05:32:18.933Z,24.80
2018-06-07T05:32:52.321Z,24.90
2018-06-07T05:33:25.619Z,24.90
2018-06-07T05:33:58.904Z,24.90
2018-06-07T05:34:32.190Z,24.90
2018-06-07T05:35:05.509Z,24.90
2018-06-07T05:35:39.121Z,25.00
2018-06-07T05:36:12.424Z,25.00
2018-06-07T05:36:45.808Z,25.00
2018-06-07T05:37:19.441Z,25.00
2018-06-07T05:37:52.755Z,25.00
2018-06-07T05:38:26.052Z,25.00
2018-06-07T05:38:59.585Z,25.00
2018-06-07T05:39:32.935Z,24.90
2018-06-07T05:40:06.557Z,24.90
2018-06-07T05:40:39.854Z,24.90
2018-06-07T05:41:13.153Z,24.90
2018-06-07T05:41:46.463Z,24.90
2018-06-07T05:42:20.139Z,25.00
2018-06-07T05:42:53.404Z,25.10
2018-06-07T05:43:26.725Z,25.10
2018-06-07T05:44:00.036Z,25.20
2018-06-07T05:44:33.395Z,25.20
2018-06-07T05:45:06.838Z,25.20
2018-06-07T05:45:40.109Z,25.30
2018-06-07T05:46:13.419Z,25.30
2018-06-07T05:46:46.708Z,25.30
2018-06-07T05:47:20.009Z,25.40
2018-06-07T05:47:53.268Z,25.40
2018-06-07T05:48:26.577Z,25.50
2018-06-07T05:48:59.861Z,25.60
2018-06-07T05:49:33.505Z,25.70
2018-06-07T05:50:06.837Z,25.60
2018-06-07T05:50:40.127Z,25.60
2018-06-07T05:51:13.483Z,25.60
2018-06-07T05:51:46.875Z,25.60
2018-06-07T05:52:20.276Z,25.60
2018-06-07T05:52:53.599Z,25.60
2018-06-07T05:53:26.881Z,25.60
2018-06-07T05:54:33.936Z,25.60
2018-06-07T05:55:07.252Z,25.50
2018-06-07T05:55:40.527Z,25.40
2018-06-07T05:56:13.828Z,25.40
2018-06-07T05:56:47.308Z,25.40
2018-06-07T05:57:20.599Z,25.40
2018-06-07T05:57:53.952Z,25.30
2018-06-07T05:58:27.359Z,25.30
2018-06-07T05:59:00.621Z,25.30
2018-06-07T05:59:33.914Z,25.30
2018-06-07T06:00:07.866Z,25.20
2018-06-07T06:00:41.134Z,25.20
2018-06-07T06:01:14.437Z,25.10
2018-06-07T06:01:47.737Z,25.10
2018-06-07T06:02:21.034Z,25.10
2018-06-07T06:02:55.059Z,25.10
2018-06-07T06:03:28.489Z,25.10
2018-06-07T06:04:01.746Z,25.10
2018-06-07T06:05:08.122Z,25.00
2018-06-07T06:06:14.726Z,25.00
2018-06-07T06:06:48.007Z,25.00
2018-06-07T06:07:21.255Z,25.00
2018-06-07T06:08:27.609Z,25.00
2018-06-07T06:09:00.890Z,25.00
2018-06-07T06:09:34.247Z,25.00
2018-06-07T06:10:07.687Z,25.00
2018-06-07T06:10:41.857Z,24.90
2018-06-07T06:11:15.447Z,24.90
2018-06-07T06:11:48.894Z,24.80
2018-06-07T06:12:22.153Z,24.70
2018-06-07T06:12:55.453Z,24.60
2018-06-07T06:13:28.749Z,24.50
2018-06-07T06:14:35.066Z,24.30
2018-06-07T06:15:08.777Z,24.20
2018-06-07T06:15:42.089Z,24.10
2018-06-07T06:16:15.375Z,24.10
2018-06-07T06:16:48.700Z,24.10
2018-06-07T06:17:21.969Z,23.90
2018-06-07T06:17:55.311Z,23.90
2018-06-07T06:19:01.693Z,23.80
2018-06-07T06:19:34.960Z,23.80
2018-06-07T06:20:08.704Z,23.80
2018-06-07T06:20:42.011Z,23.70
2018-06-07T06:21:15.303Z,23.60
2018-06-07T06:21:48.585Z,23.60
2018-06-07T06:22:21.873Z,23.50
2018-06-07T06:22:55.155Z,23.40
2018-06-07T06:23:28.766Z,23.30
2018-06-07T06:24:02.065Z,23.10
2018-06-07T06:24:35.335Z,23.00
2018-06-07T06:25:08.957Z,22.80
2018-06-07T06:25:42.643Z,22.60
2018-06-07T06:26:16.503Z,22.50
2018-06-07T06:26:49.785Z,22.40
2018-06-07T06:27:23.090Z,22.20
2018-06-07T06:27:56.427Z,22.10
2018-06-07T06:28:29.866Z,21.90
2018-06-07T06:29:03.133Z,21.70
2018-06-07T06:29:36.732Z,21.60
2018-06-07T06:30:10.341Z,21.40
2018-06-07T06:30:43.650Z,21.30
2018-06-07T06:31:16.933Z,21.20
2018-06-07T06:31:50.225Z,21.10
2018-06-07T06:32:23.500Z,21.00
2018-06-07T06:32:56.759Z,20.90
2018-06-07T06:33:30.061Z,20.80
2018-06-07T06:34:03.321Z,20.70
2018-06-07T06:34:36.574Z,20.60
2018-06-07T06:35:43.293Z,20.50
2018-06-07T06:36:16.617Z,20.40
2018-06-07T06:37:32.874Z,20.30
2018-06-07T06:38:39.247Z,20.20
2018-06-07T06:39:12.542Z,20.20
2018-06-07T06:39:45.983Z,20.10
2018-06-07T06:40:19.305Z,20.00
2018-06-07T06:40:52.697Z,20.00
2018-06-07T06:41:25.975Z,19.90
2018-06-07T06:41:59.262Z,19.90
2018-06-07T06:42:32.519Z,19.80
2018-06-07T06:43:05.783Z,19.80
2018-06-07T06:43:39.035Z,19.70
2018-06-07T06:44:12.639Z,19.70
2018-06-07T06:44:45.907Z,19.70
2018-06-07T06:45:19.511Z,19.60
2018-06-07T06:45:52.818Z,19.60
2018-06-07T06:46:26.422Z,19.60
2018-06-07T06:46:59.694Z,19.60
2018-06-07T06:47:32.983Z,19.60
2018-06-07T06:48:06.242Z,19.60
2018-06-07T06:48:39.544Z,19.50
2018-06-07T06:49:13.181Z,19.50
2018-06-07T06:49:46.653Z,19.50
2018-06-07T06:50:19.957Z,19.50
2018-06-07T06:50:53.257Z,19.50
2018-06-07T06:51:26.533Z,19.50
2018-06-07T06:51:59.833Z,19.60
2018-06-07T06:53:06.234Z,19.50
2018-06-07T06:53:39.529Z,19.50
2018-06-07T06:54:12.832Z,19.50
2018-06-07T06:54:46.129Z,19.50
2018-06-07T06:55:52.499Z,19.40
2018-06-07T06:56:25.783Z,19.40
2018-06-07T06:56:59.097Z,19.40
2018-06-07T06:58:05.929Z,19.40
2018-06-07T06:59:12.389Z,19.50
2018-06-07T07:00:18.771Z,19.50
2018-06-07T07:00:52.069Z,19.50
2018-06-07T07:01:25.401Z,19.50
2018-06-07T07:02:31.773Z,19.50
2018-06-07T07:03:05.054Z,19.50
2018-06-07T07:03:38.672Z,19.50
2018-06-07T07:04:12.252Z,19.50
2018-06-07T07:04:45.737Z,19.50
2018-06-07T07:05:19.077Z,19.50
2018-06-07T07:06:25.433Z,19.50
2018-06-07T07:06:58.729Z,19.50
2018-06-07T07:07:32.325Z,19.50
2018-06-07T07:08:05.637Z,19.50
2018-06-07T07:08:38.919Z,19.50
2018-06-07T07:09:12.303Z,19.50
2018-06-07T07:09:45.765Z,19.50
2018-06-07T07:10:19.395Z,19.50
2018-06-07T07:10:52.709Z,19.50
2018-06-07T07:11:26.057Z,19.50
2018-06-07T07:11:59.697Z,19.50
2018-06-07T07:12:33.026Z,19.50
2018-06-07T07:13:06.322Z,19.50
2018-06-07T07:13:39.917Z,19.50
2018-06-07T07:14:13.242Z,19.50
2018-06-07T07:14:46.877Z,19.50
2018-06-07T07:15:20.187Z,19.60
2018-06-07T07:15:53.527Z,19.50
2018-06-07T07:16:26.820Z,19.60
2018-06-07T07:17:00.129Z,19.60
2018-06-07T07:17:33.405Z,19.60
2018-06-07T07:19:13.031Z,19.60
2018-06-07T07:19:46.309Z,19.60
2018-06-07T07:20:52.630Z,19.70
2018-06-07T07:21:25.895Z,19.70
2018-06-07T07:21:59.222Z,19.70
2018-06-07T07:22:32.516Z,19.70
2018-06-07T07:23:05.780Z,19.70
2018-06-07T07:23:39.061Z,19.80
2018-06-07T07:24:45.480Z,19.80
2018-06-07T07:25:19.118Z,19.80
2018-06-07T07:25:52.395Z,19.90
2018-06-07T07:26:58.728Z,19.90
2018-06-07T07:27:32.022Z,19.90
2018-06-07T07:28:38.773Z,19.90
2018-06-07T07:29:12.065Z,19.90
2018-06-07T07:29:45.399Z,20.00
2018-06-07T07:30:19.029Z,20.00
2018-06-07T07:30:52.319Z,20.00
2018-06-07T07:31:25.625Z,20.00
2018-06-07T07:31:58.887Z,20.00
2018-06-07T07:32:32.276Z,20.00
2018-06-07T07:33:05.571Z,20.00
2018-06-07T07:33:38.833Z,20.00
2018-06-07T07:34:12.151Z,20.00
2018-06-07T07:34:45.443Z,20.00
2018-06-07T07:35:19.074Z,20.00